Time;durP1;ratioP1;P1;durP2;ratioP2;P2;SDS_P1;SDS_P2;PMS_P1;PMS_P2;Temp;Humidity;BMP_temperature;BMP_pressure;BME280_temperature;BME280_humidity;BME280_pressure;Samples;Min_cycle;Max_cycle;Signal;HPM_P1;HPM_P2
2021/09/07 00:01:08;;;;;;;16.33;5.35;;;;;;;7.53;74.36;100407.34;5136910;27;20644;-78
2021/09/07 00:03:34;;;;;;;13.00;5.45;;;;;;;7.60;74.19;100409.59;5116993;27;20055;-78
2021/09/07 00:06:00;;;;;;;10.55;5.30;;;;;;;7.69;73.84;100412.63;5134727;27;20043;-79
2021/09/07 00:08:26;;;;;;;12.00;4.82;;;;;;;7.67;73.84;100406.63;5102176;28;20043;-79
2021/09/07 00:10:52;;;;;;;9.30;4.65;;;;;;;7.67;73.77;100411.88;5113489;28;20043;-80
2021/09/07 00:13:18;;;;;;;13.23;5.60;;;;;;;7.64;74.40;100401.50;5112967;28;20088;-81
2021/09/07 00:15:45;;;;;;;13.40;4.70;;;;;;;7.65;74.37;100408.47;5113643;28;20050;-81
2021/09/07 00:18:11;;;;;;;8.95;4.35;;;;;;;7.70;74.39;100406.44;5113584;28;20047;-80
2021/09/07 00:20:37;;;;;;;7.03;4.30;;;;;;;7.75;74.19;100405.28;5095481;28;20036;-82
2021/09/07 00:23:03;;;;;;;8.65;3.78;;;;;;;7.74;73.76;100402.75;5078735;28;20059;-80
2021/09/07 00:25:29;;;;;;;10.20;4.65;;;;;;;7.72;74.18;100404.59;5095074;28;20039;-79
2021/09/07 00:27:55;;;;;;;10.52;4.40;;;;;;;7.65;74.40;100405.84;5113724;28;20118;-79
2021/09/07 00:30:21;;;;;;;16.65;6.00;;;;;;;7.69;74.80;100405.59;5061580;28;20027;-79
2021/09/07 00:32:47;;;;;;;10.18;4.00;;;;;;;7.72;74.79;100399.31;5113054;28;20046;-77
2021/09/07 00:35:13;;;;;;;10.25;4.20;;;;;;;7.81;74.50;100403.25;5112934;28;20059;-79
2021/09/07 00:37:42;;;;;;;10.75;3.92;;;;;;;7.78;74.32;100399.00;5095279;28;20467;-78
2021/09/07 00:40:09;;;;;;;8.73;4.07;;;;;;;7.79;74.05;100403.34;5113199;28;20039;-79
2021/09/07 00:42:36;;;;;;;9.07;4.10;;;;;;;7.81;74.31;100409.34;5113073;28;20135;-77
2021/09/07 00:45:07;;;;;;;10.47;4.40;;;;;;;7.77;74.35;100408.66;5095128;28;20051;-77
2021/09/07 00:47:33;;;;;;;7.18;4.15;;;;;;;7.84;74.15;100414.47;5112526;28;20036;-78
2021/09/07 00:49:59;;;;;;;8.27;4.32;;;;;;;7.96;73.74;100406.84;5113205;28;20035;-78
2021/09/07 00:52:25;;;;;;;10.20;4.43;;;;;;;7.93;73.65;100403.44;5112616;28;20607;-79
2021/09/07 00:54:53;;;;;;;11.20;4.53;;;;;;;7.89;73.79;100401.91;5112833;28;20035;-78
2021/09/07 00:57:19;;;;;;;10.27;4.27;;;;;;;7.86;74.30;100406.47;5112665;28;20507;-78
2021/09/07 00:59:45;;;;;;;9.20;4.40;;;;;;;7.84;74.13;100409.19;5112788;28;20043;-79
2021/09/07 01:02:13;;;;;;;18.35;6.65;;;;;;;7.83;74.49;100407.50;5094125;28;20036;-79
2021/09/07 01:04:39;;;;;;;11.57;4.10;;;;;;;7.94;74.43;100410.41;5077833;28;20043;-80
2021/09/07 01:07:08;;;;;;;7.80;3.50;;;;;;;8.04;74.47;100399.38;5112722;28;20035;-80
2021/09/07 01:09:36;;;;;;;9.32;3.63;;;;;;;8.00;74.02;100397.81;5094155;28;20035;-79
2021/09/07 01:12:06;;;;;;;15.80;6.75;;;;;;;7.94;73.81;100418.31;5045171;28;20054;-79
2021/09/07 01:14:35;;;;;;;7.93;3.90;;;;;;;7.96;74.00;100406.84;5077125;28;20091;-78
2021/09/07 01:17:02;;;;;;;9.18;3.65;;;;;;;7.88;74.43;100400.19;5094321;28;20115;-78
2021/09/07 01:19:29;;;;;;;7.93;3.10;;;;;;;7.93;74.36;100400.78;5112311;28;20142;-79
2021/09/07 01:21:55;;;;;;;10.32;4.43;;;;;;;8.00;74.08;100397.81;5112341;28;20044;-77
2021/09/07 01:24:25;;;;;;;6.43;3.72;;;;;;;8.01;73.93;100394.25;5112197;28;20043;-78
2021/09/07 01:26:51;;;;;;;7.25;3.00;;;;;;;8.04;74.02;100397.56;5112397;28;20035;-78
2021/09/07 01:29:17;;;;;;;8.10;3.60;;;;;;;8.07;74.12;100396.56;5093853;28;20051;-78
2021/09/07 01:31:46;;;;;;;6.28;3.15;;;;;;;8.09;73.47;100397.34;5112121;28;20050;-78
2021/09/07 01:34:20;;;;;;;7.40;2.85;;;;;;;7.98;74.21;100395.28;5111978;28;20043;-79
2021/09/07 01:36:46;;;;;;;8.35;2.55;;;;;;;8.00;74.42;100389.91;5093908;28;20089;-77
2021/09/07 01:39:13;;;;;;;6.70;2.75;;;;;;;8.03;73.84;100387.97;5111243;28;20431;-78
2021/09/07 01:41:40;;;;;;;10.80;2.97;;;;;;;7.99;73.46;100385.59;5112001;28;20122;-78
2021/09/07 01:44:05;;;;;;;6.22;2.80;;;;;;;7.99;73.79;100391.72;5112076;28;20070;-78
2021/09/07 01:46:31;;;;;;;6.10;2.47;;;;;;;7.98;74.00;100383.91;5111634;28;20558;-77
2021/09/07 01:48:57;;;;;;;7.28;2.90;;;;;;;8.00;73.71;100376.75;5111796;28;20047;-76
2021/09/07 01:51:23;;;;;;;10.52;3.08;;;;;;;8.01;73.97;100378.44;5076696;28;20043;-78
2021/09/07 01:53:50;;;;;;;6.53;3.17;;;;;;;7.99;73.63;100385.59;5109324;27;20575;-77
2021/09/07 01:56:15;;;;;;;7.03;2.70;;;;;;;7.99;73.68;100382.94;5114912;27;20104;-78
2021/09/07 01:58:42;;;;;;;5.07;2.65;;;;;;;7.91;73.59;100376.34;5111846;28;20040;-78
2021/09/07 02:01:09;;;;;;;8.35;2.95;;;;;;;7.91;74.06;100373.69;5099684;28;20062;-77
2021/09/07 02:03:35;;;;;;;11.57;2.95;;;;;;;7.93;73.59;100376.25;5130617;27;20101;-77
2021/09/07 02:06:01;;;;;;;11.02;2.65;;;;;;;7.99;73.86;100375.03;5147457;27;20035;-77
2021/09/07 02:08:26;;;;;;;9.75;2.50;;;;;;;8.10;73.43;100370.06;5130552;28;20047;-76
2021/09/07 02:10:52;;;;;;;7.53;3.03;;;;;;;8.11;73.02;100369.09;5132108;28;20075;-77
2021/09/07 02:13:19;;;;;;;4.53;2.42;;;;;;;8.23;72.65;100368.41;5131718;27;20177;-79
2021/09/07 02:15:46;;;;;;;7.35;2.88;;;;;;;8.19;73.00;100371.31;5113826;28;20134;-80
2021/09/07 02:18:12;;;;;;;6.55;2.53;;;;;;;8.20;72.87;100365.97;5131254;28;20131;-80
2021/09/07 02:20:38;;;;;;;6.65;2.83;;;;;;;8.22;72.87;100361.47;5131082;27;20514;-79
2021/09/07 02:23:06;;;;;;;5.38;3.10;;;;;;;8.23;72.92;100352.59;5147905;27;20419;-80
2021/09/07 02:25:33;;;;;;;5.45;2.53;;;;;;;8.27;72.99;100355.91;5130299;27;20039;-77
2021/09/07 02:28:00;;;;;;;10.93;2.78;;;;;;;8.23;72.90;100363.16;5148011;27;20095;-78
2021/09/07 02:30:27;;;;;;;10.40;2.80;;;;;;;8.24;72.65;100364.84;5131815;28;20686;-81
2021/09/07 02:32:55;;;;;;;4.28;2.40;;;;;;;8.28;72.59;100359.41;5113572;28;20674;-77
2021/09/07 02:35:22;;;;;;;6.18;2.65;;;;;;;8.21;72.44;100353.63;5132011;27;20059;-78
2021/09/07 02:37:48;;;;;;;8.48;2.58;;;;;;;8.17;72.56;100363.50;5131682;27;20146;-78
2021/09/07 02:40:15;;;;;;;6.20;2.60;;;;;;;8.14;72.85;100363.66;5131832;28;20043;-78
2021/09/07 02:42:41;;;;;;;6.85;2.30;;;;;;;8.14;72.98;100363.66;5131839;27;20058;-78
2021/09/07 02:45:08;;;;;;;256.80;86.55;;;;;;;8.10;72.90;100362.16;5131913;27;20179;-77
2021/09/07 02:47:35;;;;;;;7.28;3.10;;;;;;;8.12;72.87;100354.16;5113833;28;20381;-78
2021/09/07 02:50:03;;;;;;;6.32;2.83;;;;;;;8.15;73.40;100360.09;5135400;27;20067;-83
2021/09/07 02:52:29;;;;;;;6.60;3.28;;;;;;;8.12;72.88;100355.00;5134730;27;20046;-79
2021/09/07 02:54:55;;;;;;;7.00;2.90;;;;;;;8.10;73.22;100367.44;5136732;27;20038;-79
2021/09/07 02:57:20;;;;;;;7.22;2.65;;;;;;;8.21;72.65;100370.31;5118080;27;20043;-79
2021/09/07 02:59:47;;;;;;;5.90;2.65;;;;;;;8.18;72.61;100370.47;5118965;27;20488;-81
2021/09/07 03:02:14;;;;;;;7.80;3.20;;;;;;;8.13;72.82;100361.97;5137576;27;20096;-81
2021/09/07 03:04:41;;;;;;;9.43;3.25;;;;;;;8.12;73.32;100368.16;5152232;27;20035;-80
2021/09/07 03:07:06;;;;;;;55.28;24.00;;;;;;;8.22;72.84;100374.66;5117314;27;20045;-81
2021/09/07 03:09:33;;;;;;;9.85;2.75;;;;;;;8.21;72.68;100359.75;5135941;27;20403;-79
2021/09/07 03:11:59;;;;;;;7.28;3.20;;;;;;;8.23;72.96;100368.41;5117902;27;20053;-81
2021/09/07 03:14:26;;;;;;;9.02;3.67;;;;;;;8.26;72.26;100357.72;5135320;27;20429;-80
2021/09/07 03:16:53;;;;;;;13.82;3.17;;;;;;;8.28;73.15;100356.78;5133907;27;20454;-80
2021/09/07 03:19:19;;;;;;;12.98;3.15;;;;;;;8.35;72.57;100360.75;5134947;27;20066;-78
2021/09/07 03:21:45;;;;;;;6.68;3.55;;;;;;;8.40;72.87;100364.00;5133584;27;20134;-81
2021/09/07 03:24:11;;;;;;;9.23;3.20;;;;;;;8.44;72.88;100370.78;5116795;27;20039;-81
2021/09/07 03:26:38;;;;;;;11.93;3.42;;;;;;;8.45;72.24;100361.94;5134578;27;20091;-80
2021/09/07 03:29:04;;;;;;;7.05;3.22;;;;;;;8.50;72.52;100362.56;5136332;27;20073;-83
2021/09/07 03:31:34;;;;;;;7.13;3.15;;;;;;;8.50;72.35;100374.88;5134741;27;20139;-82
2021/09/07 03:34:00;;;;;;;7.68;3.33;;;;;;;8.60;72.30;100369.94;5152168;27;20475;-82
2021/09/07 03:36:26;;;;;;;10.60;3.47;;;;;;;8.49;72.25;100374.03;5135633;27;20083;-81
2021/09/07 03:38:54;;;;;;;6.65;3.05;;;;;;;8.54;72.02;100377.25;5118751;27;20047;-81
2021/09/07 03:41:20;;;;;;;10.60;3.92;;;;;;;8.51;72.13;100377.44;5100637;27;20035;-83
2021/09/07 03:43:48;;;;;;;10.13;3.67;;;;;;;8.58;72.14;100378.81;5117701;27;20042;-81
2021/09/07 03:46:14;;;;;;;9.43;3.38;;;;;;;8.57;72.31;100376.22;5133646;27;20039;-81
2021/09/07 03:48:41;;;;;;;23.27;13.45;;;;;;;8.54;72.77;100363.25;5116771;27;20042;-80
2021/09/07 03:51:08;;;;;;;9.40;4.28;;;;;;;8.62;72.85;100368.06;5099962;27;20136;-78
2021/09/07 03:53:34;;;;;;;9.90;3.92;;;;;;;8.51;72.69;100360.75;5133287;27;20058;-81
2021/09/07 03:56:01;;;;;;;13.90;5.80;;;;;;;8.41;73.11;100361.28;5116213;27;20042;-82
2021/09/07 03:58:27;;;;;;;10.32;3.55;;;;;;;8.41;73.45;100370.94;5133495;27;20385;-80
2021/09/07 04:00:53;;;;;;;13.50;4.00;;;;;;;8.37;73.63;100370.28;5115931;27;20062;-81
2021/09/07 04:03:20;;;;;;;10.52;4.40;;;;;;;8.45;73.53;100377.75;5099794;27;20164;-81
2021/09/07 04:05:47;;;;;;;15.65;5.00;;;;;;;8.48;73.69;100367.06;5099688;27;20070;-80
2021/09/07 04:08:14;;;;;;;7.55;3.30;;;;;;;8.51;73.36;100369.53;5117144;27;20130;-81
2021/09/07 04:10:40;;;;;;;6.63;2.85;;;;;;;8.48;73.85;100372.34;5135332;27;20042;-85
2021/09/07 04:13:06;;;;;;;11.07;3.83;;;;;;;8.54;73.88;100371.97;5116570;27;20115;-82
2021/09/07 04:15:33;;;;;;;13.18;4.18;;;;;;;8.61;73.52;100371.63;5135857;27;20047;-81
2021/09/07 04:18:00;;;;;;;10.13;3.35;;;;;;;8.70;73.76;100371.13;5151639;27;20039;-83
2021/09/07 04:20:26;;;;;;;10.70;3.90;;;;;;;8.67;73.34;100366.00;5098734;27;20150;-82
2021/09/07 04:22:52;;;;;;;6.85;3.05;;;;;;;8.69;73.36;100359.69;5133539;27;20035;-84
2021/09/07 04:25:18;;;;;;;19.08;7.20;;;;;;;8.77;73.28;100361.03;5099504;27;20559;-85
2021/09/07 04:27:44;;;;;;;12.20;4.90;;;;;;;8.85;73.07;100364.94;5115389;27;20130;-84
2021/09/07 04:30:10;;;;;;;9.65;3.42;;;;;;;8.81;73.13;100363.41;5098590;27;20039;-81
2021/09/07 04:32:36;;;;;;;8.40;3.15;;;;;;;8.85;73.18;100364.94;5133400;27;20391;-83
2021/09/07 04:35:03;;;;;;;7.53;3.60;;;;;;;8.86;73.35;100360.50;5115764;27;20050;-80
2021/09/07 04:37:29;;;;;;;8.23;3.45;;;;;;;8.90;72.91;100356.75;5116041;27;20031;-83
2021/09/07 04:39:55;;;;;;;12.68;3.28;;;;;;;8.98;72.93;100367.69;5099519;27;20039;-85
2021/09/07 04:42:21;;;;;;;10.10;4.40;;;;;;;8.95;72.39;100369.66;5100719;27;20066;-80
2021/09/07 04:44:48;;;;;;;9.65;3.30;;;;;;;9.15;71.96;100369.31;5132742;27;20069;-79
2021/09/07 04:47:15;;;;;;;7.43;2.95;;;;;;;9.29;71.54;100370.28;5116464;27;20033;-82
2021/09/07 04:49:41;;;;;;;9.38;3.35;;;;;;;9.31;71.45;100366.63;5149765;27;20038;-83
2021/09/07 04:52:10;;;;;;;9.88;3.13;;;;;;;9.45;70.81;100378.13;5083722;27;20067;-84
2021/09/07 04:54:36;;;;;;;6.78;3.00;;;;;;;9.45;70.82;100368.41;5100156;27;20137;-85
2021/09/07 04:57:02;;;;;;;8.82;3.00;;;;;;;9.47;70.33;100369.19;5117365;27;20065;-82
2021/09/07 04:59:28;;;;;;;12.80;3.10;;;;;;;9.49;70.23;100369.91;5136542;27;20038;-83
2021/09/07 05:01:54;;;;;;;15.52;6.43;;;;;;;9.52;70.18;100364.47;5098199;27;20039;-83
2021/09/07 05:04:19;;;;;;;11.98;3.92;;;;;;;9.74;69.36;100363.13;5133641;27;20057;-80
2021/09/07 05:06:45;;;;;;;10.18;3.00;;;;;;;9.80;69.11;100360.09;5133022;27;20047;-79
2021/09/07 05:09:11;;;;;;;10.20;3.00;;;;;;;9.68;69.21;100358.22;5116870;27;20050;-85
2021/09/07 05:11:38;;;;;;;12.18;3.22;;;;;;;9.94;68.95;100345.16;5116441;27;20031;-84
2021/09/07 05:14:06;;;;;;;8.52;2.63;;;;;;;9.97;68.43;100352.88;5083707;27;20349;-83
2021/09/07 05:16:32;;;;;;;13.45;4.00;;;;;;;10.26;67.77;100347.53;5083707;27;20199;-85
2021/09/07 05:18:58;;;;;;;6.22;2.97;;;;;;;10.53;67.03;100347.56;5065863;27;20043;-83
2021/09/07 05:21:24;;;;;;;13.15;2.95;;;;;;;10.98;65.62;100348.06;5100598;27;20061;-84
2021/09/07 05:23:50;;;;;;;8.50;3.30;;;;;;;11.68;63.16;100345.91;5134257;27;20035;-83
2021/09/07 05:26:15;;;;;;;7.45;3.50;;;;;;;11.88;62.50;100349.78;5098485;27;20039;-80
2021/09/07 05:28:41;;;;;;;7.40;2.85;;;;;;;12.33;61.09;100349.25;5114725;27;20046;-80
2021/09/07 05:31:07;;;;;;;8.90;3.45;;;;;;;12.32;60.57;100352.00;5132917;27;20042;-84
2021/09/07 05:33:36;;;;;;;14.48;3.30;;;;;;;12.59;59.29;100354.44;5132559;27;20038;-83
2021/09/07 05:36:04;;;;;;;6.55;2.50;;;;;;;13.36;58.44;100356.53;5100880;27;20043;-80
2021/09/07 05:38:30;;;;;;;10.52;2.95;;;;;;;13.78;56.66;100341.81;5082604;27;20419;-82
2021/09/07 05:40:56;;;;;;;8.55;2.63;;;;;;;13.51;56.60;100345.72;5099587;27;20391;-81
2021/09/07 05:43:21;;;;;;;6.32;3.03;;;;;;;13.17;57.10;100353.59;5082723;27;20400;-80
2021/09/07 05:45:50;;;;;;;18.80;3.60;;;;;;;12.98;57.47;100355.00;5099489;27;20501;-84
2021/09/07 05:48:26;;;;;;;7.85;2.92;;;;;;;13.36;56.44;100351.22;5026213;28;20052;-83
2021/09/07 05:51:16;;;;;;;7.25;3.03;;;;;;;15.10;52.88;100345.22;5080490;28;20381;-85
2021/09/07 05:54:13;;;;;;;11.10;4.28;;;;;;;17.36;47.20;100346.41;5033006;28;20055;-87
2021/09/07 05:56:39;;;;;;;7.20;2.55;;;;;;;19.91;42.05;100344.34;5059454;28;20042;-84
2021/09/07 05:59:05;;;;;;;28.38;11.60;;;;;;;19.61;40.20;100344.69;5043120;28;20039;-88
2021/09/07 06:01:36;;;;;;;8.10;2.53;;;;;;;18.96;41.75;100350.53;5020619;28;20152;-86
2021/09/07 06:04:03;;;;;;;5.78;2.70;;;;;;;18.90;41.21;100351.94;5003272;28;20049;-87
2021/09/07 06:06:33;;;;;;;7.18;3.25;;;;;;;19.50;40.49;100343.16;5052003;28;20041;-85
2021/09/07 06:08:59;;;;;;;6.82;2.88;;;;;;;19.94;39.35;100349.38;5036293;28;20041;-83
2021/09/07 06:11:25;;;;;;;6.63;3.85;;;;;;;21.89;35.81;100350.44;5018839;28;20136;-87
2021/09/07 06:13:51;;;;;;;10.10;3.35;;;;;;;22.24;35.06;100347.41;5018190;28;20051;-86
2021/09/07 06:16:21;;;;;;;9.00;3.10;;;;;;;23.02;34.06;100342.75;5004862;28;20095;-84
2021/09/07 06:18:48;;;;;;;6.95;2.10;;;;;;;24.24;31.91;100343.38;5031588;28;20080;-82
2021/09/07 06:21:14;;;;;;;8.65;2.28;;;;;;;25.06;30.73;100348.47;5074641;28;20084;-82
2021/09/07 06:23:40;;;;;;;4.35;2.95;;;;;;;25.13;29.67;100341.25;5075427;28;20044;-83
2021/09/07 06:26:05;;;;;;;11.07;2.70;;;;;;;25.25;29.79;100339.66;5096908;28;20105;-82
2021/09/07 06:28:31;;;;;;;9.50;2.85;;;;;;;25.70;28.69;100346.63;5078727;28;20036;-85
2021/09/07 06:30:57;;;;;;;5.90;2.50;;;;;;;27.56;27.08;100326.09;5061939;28;20130;-85
2021/09/07 06:33:24;;;;;;;8.15;2.67;;;;;;;28.04;25.25;100330.31;5067699;27;20092;-84
2021/09/07 06:35:51;;;;;;;5.50;2.83;;;;;;;27.40;24.65;100330.16;5086659;27;20039;-82
2021/09/07 06:38:17;;;;;;;8.20;2.30;;;;;;;27.43;24.98;100326.16;5059137;28;20053;-82
2021/09/07 06:40:44;;;;;;;7.60;2.92;;;;;;;27.29;24.69;100334.31;5059278;28;20183;-85
2021/09/07 06:43:10;;;;;;;8.05;2.55;;;;;;;28.21;24.50;100325.22;5062213;28;20139;-81
2021/09/07 06:45:37;;;;;;;5.55;2.20;;;;;;;28.46;23.69;100332.53;5044601;28;20501;-84
2021/09/07 06:48:04;;;;;;;8.80;2.30;;;;;;;28.92;23.24;100326.97;5014726;28;20527;-85
2021/09/07 06:50:31;;;;;;;8.23;2.40;;;;;;;29.13;22.66;100332.00;4992921;28;20045;-84
2021/09/07 06:52:59;;;;;;;6.63;2.38;;;;;;;29.42;22.21;100332.34;4985399;28;20145;-86
2021/09/07 06:55:28;;;;;;;5.75;2.53;;;;;;;28.10;23.53;100323.16;4932334;29;20058;-84
2021/09/07 06:57:56;;;;;;;6.63;2.30;;;;;;;27.45;24.24;100326.78;4930593;29;20051;-84
2021/09/07 07:00:24;;;;;;;5.55;2.05;;;;;;;25.76;26.07;100327.66;4914137;29;20078;-80
2021/09/07 07:02:50;;;;;;;9.10;2.97;;;;;;;25.21;26.44;100333.00;4955246;28;20494;-84
2021/09/07 07:05:17;;;;;;;7.55;4.15;;;;;;;25.43;27.46;100327.50;4942647;29;20055;-85
2021/09/07 07:07:43;;;;;;;8.23;2.28;;;;;;;25.26;26.99;100321.53;4943265;29;20114;-83
2021/09/07 07:10:09;;;;;;;6.72;2.10;;;;;;;24.04;28.64;100322.38;4931974;29;20050;-86
2021/09/07 07:12:38;;;;;;;10.57;2.60;;;;;;;21.83;32.15;100328.78;4960877;29;20050;-84
2021/09/07 07:15:04;;;;;;;4.90;2.20;;;;;;;22.46;31.42;100313.44;4943206;29;20051;-83
2021/09/07 07:17:31;;;;;;;8.10;2.70;;;;;;;22.73;31.13;100314.72;4944656;29;20055;-83
2021/09/07 07:19:58;;;;;;;6.97;2.20;;;;;;;21.70;32.68;100310.50;4931659;29;20043;-85
2021/09/07 07:22:25;;;;;;;7.93;3.15;;;;;;;20.73;33.29;100312.22;4929109;29;20061;-83
2021/09/07 07:24:57;;;;;;;9.13;1.98;;;;;;;20.26;34.02;100315.53;4959189;28;20045;-83
2021/09/07 07:27:25;;;;;;;6.70;2.78;;;;;;;19.56;35.09;100309.44;5008706;28;20048;-85
2021/09/07 07:29:52;;;;;;;9.73;2.03;;;;;;;19.74;35.30;100328.16;5037290;28;20040;-86
2021/09/07 07:32:20;;;;;;;10.45;2.95;;;;;;;18.99;36.57;100321.56;5032526;28;20075;-82
2021/09/07 07:34:46;;;;;;;9.02;2.13;;;;;;;18.69;37.47;100322.81;5076952;28;20512;-86
2021/09/07 07:37:12;;;;;;;6.95;1.75;;;;;;;18.03;37.79;100322.19;5070440;28;20396;-82
2021/09/07 07:39:39;;;;;;;6.13;2.15;;;;;;;17.43;39.33;100329.66;5070803;28;20051;-86
2021/09/07 07:42:05;;;;;;;9.45;3.10;;;;;;;17.22;40.32;100327.22;5086723;28;20045;-84
2021/09/07 07:44:31;;;;;;;8.90;2.15;;;;;;;17.42;40.09;100322.63;5053126;28;20031;-84
2021/09/07 07:46:58;;;;;;;4.25;2.00;;;;;;;17.09;40.14;100329.34;5053032;28;20043;-84
2021/09/07 07:49:24;;;;;;;7.70;1.80;;;;;;;16.89;40.40;100329.34;5049632;28;20349;-84
2021/09/07 07:51:50;;;;;;;7.47;2.15;;;;;;;16.55;41.40;100327.16;5081103;28;20043;-83
2021/09/07 07:54:16;;;;;;;10.00;2.65;;;;;;;16.24;42.34;100326.44;5065256;28;20137;-88
2021/09/07 07:56:48;;;;;;;8.60;3.10;;;;;;;16.19;42.71;100326.84;5065543;28;20039;-85
2021/09/07 07:59:14;;;;;;;12.10;5.70;;;;;;;16.09;42.97;100329.50;5099521;28;20457;-85
2021/09/07 08:01:40;;;;;;;18.85;8.63;;;;;;;16.07;43.25;100327.94;5100880;28;20035;-83
2021/09/07 08:04:06;;;;;;;15.25;7.07;;;;;;;16.22;42.66;100313.22;5101993;28;20040;-86
2021/09/07 08:06:35;;;;;;;16.92;6.20;;;;;;;16.45;42.32;100321.81;5068204;28;20504;-88
2021/09/07 08:09:04;;;;;;;14.00;5.20;;;;;;;16.19;42.62;100324.19;5027688;28;20048;-86
2021/09/07 08:11:30;;;;;;;7.65;3.00;;;;;;;15.88;43.57;100321.59;5010115;28;20818;-88
2021/09/07 08:13:56;;;;;;;12.35;2.50;;;;;;;15.52;44.16;100324.66;5025961;28;20044;-86
2021/09/07 08:16:24;;;;;;;9.43;2.78;;;;;;;15.74;44.45;100324.59;5027560;28;20111;-88
2021/09/07 08:18:52;;;;;;;7.65;3.72;;;;;;;15.79;44.02;100309.88;5057816;28;20051;-85
2021/09/07 08:21:18;;;;;;;;;;;;;;;15.71;44.45;100316.88;5042468;28;20425;-82
2021/09/07 08:23:44;;;;;;;5.55;2.05;;;;;;;15.64;44.35;100305.94;5040329;28;19916;-84
2021/09/07 08:26:10;;;;;;;18.67;7.75;;;;;;;15.72;44.83;100310.56;5025182;28;20391;-82
2021/09/07 08:28:36;;;;;;;7.60;3.95;;;;;;;15.93;44.13;100316.69;5007829;28;20051;-83
2021/09/07 08:31:03;;;;;;;13.50;6.18;;;;;;;15.65;45.00;100316.44;5024269;28;20036;-85
2021/09/07 08:33:32;;;;;;;19.48;6.50;;;;;;;15.54;45.08;100313.88;5028712;28;20082;-83
2021/09/07 08:36:23;;;;;;;13.40;3.78;;;;;;;15.42;45.61;100314.97;5038030;28;20044;-84
2021/09/07 08:38:49;;;;;;;13.55;6.00;;;;;;;15.46;45.55;100311.03;5018594;28;20056;-83
2021/09/07 08:41:19;;;;;;;20.02;7.72;;;;;;;15.52;45.67;100310.50;4993308;28;20049;-82
2021/09/07 08:43:50;;;;;;;9.68;3.92;;;;;;;15.42;45.96;100317.63;5040473;28;20049;-83
2021/09/07 08:46:16;;;;;;;9.18;3.17;;;;;;;15.22;46.33;100312.19;5038438;28;20080;-81
2021/09/07 08:48:43;;;;;;;9.80;2.80;;;;;;;15.45;46.33;100306.69;5034210;28;20041;-82
2021/09/07 08:51:10;;;;;;;10.00;2.20;;;;;;;15.40;46.30;100314.25;5003213;28;20157;-78
2021/09/07 08:53:37;;;;;;;12.45;5.78;;;;;;;15.30;46.53;100312.38;5019260;28;20100;-85
2021/09/07 08:56:07;;;;;;;6.90;1.95;;;;;;;15.27;46.63;100315.31;5002134;28;20045;-83
2021/09/07 08:58:33;;;;;;;7.45;2.25;;;;;;;15.15;46.76;100311.03;5017484;28;20049;-82
2021/09/07 09:01:17;;;;;;;6.40;2.13;;;;;;;15.07;47.00;100314.38;5016270;28;20052;-84
2021/09/07 09:03:46;;;;;;;13.10;4.90;;;;;;;14.88;47.61;100313.28;5001736;28;20171;-81
2021/09/07 09:06:12;;;;;;;6.20;2.38;;;;;;;15.00;47.81;100303.41;5017150;28;20053;-82
2021/09/07 09:08:38;;;;;;;6.60;1.77;;;;;;;15.20;47.85;100311.47;5033333;28;20033;-84
2021/09/07 09:11:07;;;;;;;7.00;2.67;;;;;;;15.27;47.42;100309.97;4985042;28;20045;-81
2021/09/07 09:13:44;;;;;;;7.07;2.92;;;;;;;15.26;47.94;100305.63;5023293;28;20386;-82
2021/09/07 09:16:14;;;;;;;10.95;4.13;;;;;;;15.11;48.02;100314.94;5056105;28;20042;-82
2021/09/07 09:18:43;;;;;;;14.85;6.60;;;;;;;14.89;49.00;100311.44;5026101;28;20520;-80
2021/09/07 09:21:28;;;;;;;16.00;4.28;;;;;;;14.72;49.26;100305.72;5074322;28;20509;-84
2021/09/07 09:24:18;;;;;;;19.65;7.40;;;;;;;14.33;50.18;100308.09;5021440;28;20047;-86
2021/09/07 09:26:53;;;;;;;16.70;6.38;;;;;;;14.20;50.46;100304.72;5074748;28;20131;-83
2021/09/07 09:29:23;;;;;;;10.32;3.25;;;;;;;14.24;50.90;100309.69;5059532;28;20036;-86
2021/09/07 09:32:16;;;;;;;9.40;2.97;;;;;;;14.31;50.62;100311.84;5027502;28;20041;-84
2021/09/07 09:34:42;;;;;;;6.85;2.65;;;;;;;14.26;50.23;100308.72;5076866;28;20116;-81
2021/09/07 09:37:13;;;;;;;8.02;3.75;;;;;;;14.12;50.88;100317.81;5088552;28;20386;-83
2021/09/07 09:39:53;;;;;;;9.52;3.08;;;;;;;14.05;51.32;100315.66;5073763;28;20063;-80
2021/09/07 09:42:33;;;;;;;14.45;5.70;;;;;;;14.15;51.49;100312.25;5061664;28;20036;-81
2021/09/07 09:45:04;;;;;;;17.33;5.88;;;;;;;14.09;51.61;100310.94;5079993;28;20047;-82
2021/09/07 09:47:41;;;;;;;9.27;3.10;;;;;;;13.86;52.51;100315.47;5063772;28;20456;-83
2021/09/07 09:50:11;;;;;;;12.95;3.40;;;;;;;13.89;52.05;100320.53;5094209;28;20044;-86
2021/09/07 09:52:45;;;;;;;8.95;3.83;;;;;;;13.83;52.29;100307.72;5058096;28;20032;-82
2021/09/07 09:55:13;;;;;;;11.50;3.50;;;;;;;14.04;51.91;100315.78;5075555;28;20561;-82
2021/09/07 09:57:39;;;;;;;7.77;3.00;;;;;;;14.11;51.74;100301.03;5074504;28;20159;-80
2021/09/07 10:00:08;;;;;;;8.70;3.20;;;;;;;14.18;51.61;100312.84;5088856;28;20489;-79
2021/09/07 10:02:44;;;;;;;13.98;3.10;;;;;;;14.27;52.06;100311.25;5074963;28;20086;-82
2021/09/07 10:05:12;;;;;;;10.20;2.85;;;;;;;14.22;52.30;100310.78;5075427;28;20523;-79
2021/09/07 10:07:38;;;;;;;12.00;3.42;;;;;;;14.23;51.97;100315.13;5091876;28;20054;-79
2021/09/07 10:10:04;;;;;;;9.85;2.90;;;;;;;14.06;52.21;100317.34;5074678;28;20047;-77
2021/09/07 10:12:53;;;;;;;10.73;2.83;;;;;;;13.92;52.45;100312.31;5076870;28;20051;-81
2021/09/07 10:22:58;;;;;;;7.57;1.98;;;;;;;14.10;52.91;100325.91;5091995;28;20040;-80
2021/09/07 10:24:02;;;;;;;7.28;2.20;;;;;;;14.21;52.86;100325.88;5071037;28;20046;-77
2021/09/07 10:26:40;;;;;;;17.90;8.52;;;;;;;14.14;53.42;100324.69;5071136;28;20044;-78
2021/09/07 10:29:09;;;;;;;;;;;;;;;14.15;53.65;100322.91;5072827;28;20040;-79
2021/09/07 10:31:50;;;;;;;11.23;4.50;;;;;;;14.18;53.52;100331.47;5073334;28;20376;-81
2021/09/07 10:34:23;;;;;;;8.73;4.18;;;;;;;14.19;53.62;100324.31;5054381;28;20040;-79
2021/09/07 10:37:03;;;;;;;12.32;4.10;;;;;;;14.13;54.11;100324.81;5054271;28;20108;-78
2021/09/07 10:39:33;;;;;;;4.65;2.30;;;;;;;14.06;54.56;100320.00;5063767;28;20084;-80
2021/09/07 10:42:01;;;;;;;10.43;2.78;;;;;;;14.01;54.80;100324.03;5071080;28;20048;-77
2021/09/07 10:44:30;;;;;;;9.80;3.25;;;;;;;13.84;55.25;100325.38;5070706;28;20040;-79
2021/09/07 10:46:57;;;;;;;18.08;6.75;;;;;;;13.76;55.47;100323.34;5070657;28;20432;-77
2021/09/07 10:49:40;;;;;;;8.90;2.42;;;;;;;13.78;55.91;100323.22;5072667;28;20053;-78
2021/09/07 10:52:17;;;;;;;11.68;2.70;;;;;;;13.93;55.35;100321.97;5074643;28;20048;-82
2021/09/07 10:54:52;;;;;;;8.02;2.30;;;;;;;14.01;55.15;100322.19;5056495;28;20072;-81
2021/09/07 10:57:32;;;;;;;7.00;2.33;;;;;;;13.96;55.29;100319.06;5056644;28;20037;-85
2021/09/07 11:00:01;;;;;;;8.77;2.95;;;;;;;13.97;55.45;100320.78;5054870;28;20037;-82
2021/09/07 11:02:33;;;;;;;7.63;2.92;;;;;;;13.99;55.11;100324.13;5056004;28;20064;-82
2021/09/07 11:05:01;;;;;;;7.40;3.13;;;;;;;13.96;55.29;100320.91;5056065;28;20474;-83
2021/09/07 11:07:32;;;;;;;8.82;2.38;;;;;;;13.90;55.68;100325.72;5038570;28;20044;-80
2021/09/07 11:09:59;;;;;;;7.13;2.33;;;;;;;13.94;55.68;100325.50;5038239;28;20083;-84
2021/09/07 11:12:30;;;;;;;6.57;2.55;;;;;;;14.05;55.42;100330.78;5041946;28;20048;-82
2021/09/07 11:15:10;;;;;;;5.88;2.33;;;;;;;14.13;55.18;100322.16;4982821;28;20125;-84
2021/09/07 11:17:50;;;;;;;4.70;2.08;;;;;;;14.15;55.11;100322.91;4985864;28;20517;-85
2021/09/07 11:20:18;;;;;;;8.68;2.42;;;;;;;14.11;55.53;100330.28;4998059;28;20160;-82
2021/09/07 11:22:44;;;;;;;10.20;2.50;;;;;;;14.13;55.56;100324.81;4980294;28;20055;-84
2021/09/07 11:25:16;;;;;;;16.58;3.60;;;;;;;14.28;55.82;100323.59;4960991;28;20520;-82
2021/09/07 11:28:00;;;;;;;7.70;2.67;;;;;;;14.31;55.35;100311.84;4996988;28;20429;-81
2021/09/07 11:30:28;;;;;;;9.38;2.33;;;;;;;14.43;55.17;100317.94;4952608;28;20164;-84
2021/09/07 11:32:57;;;;;;;5.10;1.90;;;;;;;14.52;54.58;100322.53;4979250;28;20049;-84
2021/09/07 11:35:24;;;;;;;10.75;2.55;;;;;;;14.38;55.33;100310.34;5002019;28;20062;-84
2021/09/07 11:38:24;;;;;;;7.78;2.35;;;;;;;14.49;55.29;100320.09;5021896;28;20052;-86